createdAt,value
2023-03-19T00:02:51.833Z,1.12
2023-03-19T00:07:49.913Z,1.05
2023-03-19T00:12:57.817Z,1.30
2023-03-19T00:18:06.100Z,1.24
2023-03-19T00:23:15.541Z,1.19
2023-03-19T00:28:25.410Z,1.07
2023-03-19T00:33:33.517Z,1.46
2023-03-19T00:38:42.098Z,2.02
2023-03-19T00:44:01.355Z,1.81
2023-03-19T00:49:02.653Z,1.70
2023-03-19T00:54:00.721Z,1.53
2023-03-19T00:59:08.935Z,1.30
2023-03-19T01:04:17.172Z,1.30
2023-03-19T01:09:28.265Z,1.39
2023-03-19T01:14:26.480Z,1.26
2023-03-19T01:19:35.036Z,1.45
2023-03-19T01:24:48.315Z,1.23
2023-03-19T01:29:48.145Z,1.18
2023-03-19T01:34:56.796Z,1.36
2023-03-19T01:40:07.550Z,1.38
2023-03-19T01:45:05.429Z,1.34
2023-03-19T01:50:16.466Z,1.34
2023-03-19T01:55:14.581Z,1.30
2023-03-19T02:00:24.154Z,1.32
2023-03-19T02:05:34.111Z,1.40
2023-03-19T02:10:43.300Z,1.29
2023-03-19T02:15:51.348Z,1.22
2023-03-19T02:21:01.214Z,1.42
2023-03-19T02:26:09.249Z,1.39
2023-03-19T02:31:17.673Z,1.40
2023-03-19T02:36:25.777Z,1.46
2023-03-19T02:41:35.329Z,1.47
2023-03-19T02:46:44.090Z,1.44
2023-03-19T02:51:55.746Z,1.52
2023-03-19T02:56:53.990Z,1.49
2023-03-19T03:02:02.579Z,1.56
2023-03-19T03:07:10.685Z,1.34
2023-03-19T03:12:21.737Z,1.61
2023-03-19T03:17:20.827Z,1.99
2023-03-19T03:22:32.265Z,1.73
2023-03-19T03:27:30.140Z,1.60
2023-03-19T03:32:38.923Z,1.42
2023-03-19T03:37:47.310Z,1.67
2023-03-19T03:42:56.498Z,1.60
2023-03-19T03:48:05.778Z,1.59
2023-03-19T03:53:15.165Z,1.47
2023-03-19T03:58:25.686Z,1.56
2023-03-19T04:03:24.261Z,1.41
2023-03-19T04:08:35.077Z,1.64
2023-03-19T04:13:34.552Z,1.29
2023-03-19T04:18:43.357Z,1.39
2023-03-19T04:23:52.634Z,1.43
2023-03-19T04:29:01.964Z,1.50
2023-03-19T04:34:10.619Z,1.42
2023-03-19T04:39:20.080Z,1.61
2023-03-19T04:44:28.684Z,1.54
2023-03-19T04:49:38.800Z,1.48
2023-03-19T04:54:38.588Z,1.58
2023-03-19T04:59:47.493Z,1.51
2023-03-19T05:04:56.620Z,1.48
2023-03-19T05:10:04.754Z,1.61
2023-03-19T05:15:13.259Z,1.68
2023-03-19T05:20:22.710Z,1.76
2023-03-19T05:25:31.551Z,1.59
2023-03-19T05:30:44.759Z,1.64
2023-03-19T05:35:44.486Z,1.60
2023-03-19T05:40:52.620Z,2.13
2023-03-19T05:45:56.992Z,1.79
2023-03-19T05:51:07.307Z,1.90
2023-03-19T05:56:05.928Z,1.76
2023-03-19T06:01:15.070Z,1.75
2023-03-19T06:06:25.363Z,1.66
2023-03-19T06:11:24.434Z,1.80
2023-03-19T06:16:33.915Z,1.82
2023-03-19T06:21:42.197Z,2.00
2023-03-19T06:26:53.784Z,1.84
2023-03-19T06:31:52.864Z,1.79
2023-03-19T06:37:04.440Z,1.92
2023-03-19T06:42:02.532Z,1.90
2023-03-19T06:47:11.788Z,2.27
2023-03-19T06:52:21.845Z,1.97
2023-03-19T06:57:21.124Z,2.21
2023-03-19T07:02:29.189Z,2.00
2023-03-19T07:07:38.138Z,2.13
2023-03-19T07:12:47.042Z,2.12
2023-03-19T07:17:56.529Z,2.22
2023-03-19T07:23:06.974Z,2.35
2023-03-19T07:28:05.206Z,2.24
2023-03-19T07:33:14.777Z,2.05
2023-03-19T07:38:23.278Z,2.09
2023-03-19T07:43:33.807Z,2.08
2023-03-19T07:48:32.817Z,2.24
2023-03-19T07:53:41.624Z,2.20
2023-03-19T07:58:50.244Z,2.58
2023-03-19T08:03:59.446Z,2.74
2023-03-19T08:09:07.950Z,2.85
2023-03-19T08:14:16.840Z,2.78
2023-03-19T08:19:25.286Z,2.95
2023-03-19T08:24:34.788Z,2.33
2023-03-19T08:29:44.406Z,2.21
2023-03-19T08:34:52.514Z,2.19
2023-03-19T08:40:01.975Z,2.09
2023-03-19T08:45:09.920Z,2.05
2023-03-19T08:50:20.511Z,2.13
2023-03-19T08:55:19.546Z,2.07
2023-03-19T09:00:27.974Z,1.93
2023-03-19T09:05:36.321Z,1.89
2023-03-19T09:10:45.009Z,2.21
2023-03-19T09:15:54.985Z,2.06
2023-03-19T09:21:05.568Z,2.04
2023-03-19T09:26:04.893Z,2.05
2023-03-19T09:31:16.045Z,2.14
2023-03-19T09:36:14.748Z,2.06
2023-03-19T09:41:24.208Z,2.31
2023-03-19T09:46:32.509Z,2.28
2023-03-19T09:51:41.076Z,2.20
2023-03-19T09:56:50.194Z,1.88
2023-03-19T10:01:58.409Z,2.51
2023-03-19T10:07:07.630Z,2.00
2023-03-19T10:12:16.978Z,2.40
2023-03-19T10:17:25.094Z,2.14
2023-03-19T10:22:35.106Z,2.24
2023-03-19T10:27:43.144Z,2.00
2023-03-19T10:32:53.490Z,2.13
2023-03-19T10:37:51.143Z,1.94
2023-03-19T10:43:01.161Z,2.14
2023-03-19T10:47:59.941Z,2.19
2023-03-19T10:53:08.308Z,2.20
2023-03-19T10:58:16.377Z,2.32
2023-03-19T11:03:26.278Z,2.20
2023-03-19T11:08:35.952Z,2.39
2023-03-19T11:13:42.925Z,4.51
2023-03-19T11:18:51.028Z,6.21
2023-03-19T11:24:00.959Z,7.38
2023-03-19T11:29:09.300Z,2.94
2023-03-19T11:34:17.709Z,3.31
2023-03-19T11:39:28.131Z,2.21
2023-03-19T11:44:26.328Z,2.05
2023-03-19T11:49:36.676Z,3.87
2023-03-19T11:54:36.874Z,3.99
2023-03-19T11:59:35.862Z,3.77
2023-03-19T12:04:44.525Z,2.59
2023-03-19T12:09:53.004Z,2.44
2023-03-19T12:15:02.625Z,1.98
2023-03-19T12:20:11.092Z,3.24
2023-03-19T12:25:20.842Z,3.46
2023-03-19T12:30:30.487Z,2.35
2023-03-19T12:35:40.178Z,2.57
2023-03-19T12:40:50.813Z,1.64
2023-03-19T12:45:42.856Z,3.75
2023-03-19T12:50:51.882Z,1.89
2023-03-19T12:56:00.539Z,1.72
2023-03-19T13:01:09.171Z,1.88
2023-03-19T13:06:12.503Z,1.52
2023-03-19T13:11:22.541Z,1.44
2023-03-19T13:16:24.583Z,1.59
2023-03-19T13:21:22.956Z,1.50
2023-03-19T13:26:32.523Z,1.83
2023-03-19T13:31:41.559Z,1.81
2023-03-19T13:36:51.094Z,2.50
2023-03-19T13:42:00.946Z,1.96
2023-03-19T13:47:09.411Z,1.65
2023-03-19T13:52:17.861Z,1.67
2023-03-19T13:57:28.327Z,1.62
2023-03-19T14:02:27.474Z,1.60
2023-03-19T14:07:37.713Z,1.77
2023-03-19T14:12:37.402Z,1.63
2023-03-19T14:17:47.318Z,1.63
2023-03-19T14:22:56.800Z,1.52
2023-03-19T14:28:07.047Z,1.73
2023-03-19T14:33:06.215Z,1.73
2023-03-19T14:38:17.139Z,1.75
2023-03-19T14:43:15.281Z,1.64
2023-03-19T14:48:23.966Z,1.70
2023-03-19T14:53:33.410Z,1.91
2023-03-19T14:58:45.340Z,1.62
2023-03-19T15:03:44.607Z,1.59
2023-03-19T15:08:54.112Z,1.94
2023-03-19T15:14:02.264Z,2.03
2023-03-19T15:19:10.966Z,1.78
2023-03-19T15:24:19.010Z,1.69
2023-03-19T15:29:29.271Z,1.61
2023-03-19T15:34:36.930Z,1.75
2023-03-19T15:39:45.820Z,2.12
2023-03-19T15:44:55.297Z,1.91
2023-03-19T15:50:05.755Z,1.65
2023-03-19T15:55:03.849Z,1.88
2023-03-19T16:00:12.380Z,1.67
2023-03-19T16:05:23.405Z,1.70
2023-03-19T16:10:22.812Z,1.70
2023-03-19T16:15:32.053Z,1.87
2023-03-19T16:20:41.357Z,3.02
2023-03-19T16:25:49.358Z,2.39
2023-03-19T16:30:57.948Z,2.15
2023-03-19T16:36:06.118Z,2.26
2023-03-19T16:41:17.401Z,2.60
2023-03-19T16:46:17.048Z,2.72
2023-03-19T16:51:26.546Z,2.69
2023-03-19T16:56:34.802Z,2.42
2023-03-19T17:01:43.839Z,2.37
2023-03-19T17:06:53.171Z,3.53
2023-03-19T17:12:01.822Z,3.02
2023-03-19T17:17:11.312Z,2.10
2023-03-19T17:22:19.778Z,4.69
2023-03-19T17:27:28.197Z,13.18
2023-03-19T17:32:37.871Z,6.49
2023-03-19T17:37:50.076Z,4.71
2023-03-19T17:42:49.214Z,4.97
2023-03-19T17:47:58.844Z,3.81
2023-03-19T17:53:07.133Z,4.42
2023-03-19T17:58:15.814Z,4.72
2023-03-19T18:03:24.202Z,5.13
2023-03-19T18:08:34.990Z,6.79
2023-03-19T18:13:36.380Z,5.68
2023-03-19T18:18:36.671Z,3.97
2023-03-19T18:23:36.573Z,4.05
2023-03-19T18:28:45.463Z,4.04
2023-03-19T18:33:53.777Z,3.96
2023-03-19T18:39:03.304Z,3.29
2023-03-19T18:44:12.585Z,3.36
2023-03-19T18:49:21.532Z,3.67
2023-03-19T18:54:32.508Z,3.30
2023-03-19T18:59:32.940Z,3.37
2023-03-19T19:04:29.657Z,2.91
2023-03-19T19:09:35.250Z,2.45
2023-03-19T19:14:44.900Z,2.45
2023-03-19T19:19:53.322Z,1.97
2023-03-19T19:25:01.816Z,3.03
2023-03-19T19:30:10.982Z,2.44
2023-03-19T19:35:21.096Z,2.58
2023-03-19T19:40:30.210Z,2.20
2023-03-19T19:45:29.636Z,2.82
2023-03-19T19:50:39.501Z,2.70
2023-03-19T19:55:48.443Z,2.80
2023-03-19T20:01:03.893Z,3.05
2023-03-19T20:06:06.849Z,3.33
2023-03-19T20:11:16.545Z,2.97
2023-03-19T20:16:26.372Z,3.28
2023-03-19T20:21:34.327Z,3.37
2023-03-19T20:26:44.213Z,3.02
2023-03-19T20:31:52.564Z,2.94
2023-03-19T20:37:01.224Z,3.40
2023-03-19T20:42:11.699Z,2.54
2023-03-19T20:47:11.967Z,2.50
2023-03-19T20:52:03.605Z,2.54
2023-03-19T20:57:12.752Z,2.17
2023-03-19T21:02:22.766Z,2.44
2023-03-19T21:07:32.421Z,2.32
2023-03-19T21:12:41.851Z,2.34
2023-03-19T21:17:51.070Z,2.24
2023-03-19T21:22:59.304Z,2.26
2023-03-19T21:28:08.162Z,2.73
2023-03-19T21:33:17.483Z,3.29
2023-03-19T21:38:26.082Z,3.24
2023-03-19T21:43:34.315Z,3.47
2023-03-19T21:48:43.018Z,3.06
2023-03-19T21:53:51.216Z,2.77
2023-03-19T21:59:01.591Z,2.35
2023-03-19T22:03:59.692Z,2.52
2023-03-19T22:09:08.218Z,2.69
2023-03-19T22:14:19.512Z,4.57
2023-03-19T22:19:19.005Z,3.87
2023-03-19T22:24:27.343Z,4.40
2023-03-19T22:29:36.845Z,3.86
2023-03-19T22:34:46.458Z,3.60
2023-03-19T22:39:56.440Z,3.02
2023-03-19T22:45:06.302Z,3.64
2023-03-19T22:50:14.794Z,3.31
2023-03-19T22:55:24.815Z,2.72
2023-03-19T23:00:23.151Z,2.70
2023-03-19T23:05:25.530Z,2.31
2023-03-19T23:10:36.350Z,2.29
2023-03-19T23:15:36.583Z,2.18
2023-03-19T23:20:35.056Z,2.42
2023-03-19T23:25:43.606Z,2.38
2023-03-19T23:30:54.046Z,4.16
2023-03-19T23:35:52.734Z,2.46
2023-03-19T23:41:01.328Z,3.29
2023-03-19T23:46:10.130Z,3.40
2023-03-19T23:51:18.603Z,3.19
2023-03-19T23:56:27.855Z,4.29
